createdAt,value
2024-01-15T00:01:53.911Z,34.45
2024-01-15T00:04:21.467Z,35.35
2024-01-15T00:06:50.601Z,33.67
2024-01-15T00:09:17.871Z,31.92
2024-01-15T00:11:45.283Z,30.85
2024-01-15T00:14:13.171Z,32.15
2024-01-15T00:16:41.940Z,35.55
2024-01-15T00:19:09.631Z,30.75
2024-01-15T00:21:36.845Z,30.17
2024-01-15T00:24:06.064Z,31.12
2024-01-15T00:26:33.491Z,27.75
2024-01-15T00:29:00.726Z,30.67
2024-01-15T00:31:28.222Z,32.63
2024-01-15T00:33:55.930Z,31.10
2024-01-15T00:36:23.228Z,31.60
2024-01-15T00:38:50.491Z,30.92
2024-01-15T00:41:17.903Z,31.17
2024-01-15T00:43:50.392Z,29.70
2024-01-15T00:46:18.627Z,30.42
2024-01-15T00:48:46.310Z,29.70
2024-01-15T00:51:13.636Z,32.72
2024-01-15T00:53:41.444Z,30.40
2024-01-15T00:56:08.537Z,31.80
2024-01-15T00:58:35.666Z,33.30
2024-01-15T01:01:03.243Z,30.90
2024-01-15T01:03:30.943Z,33.10
2024-01-15T01:05:58.292Z,33.20
2024-01-15T01:08:25.898Z,34.97
2024-01-15T01:10:53.044Z,34.80
2024-01-15T01:13:20.467Z,33.50
2024-01-15T01:15:48.258Z,33.88
2024-01-15T01:18:15.612Z,29.70
2024-01-15T01:20:42.967Z,30.75
2024-01-15T01:23:10.475Z,28.27
2024-01-15T01:25:37.725Z,32.35
2024-01-15T01:28:05.061Z,32.70
2024-01-15T01:30:32.598Z,31.92
2024-01-15T01:32:59.842Z,28.92
2024-01-15T01:35:27.056Z,28.87
2024-01-15T01:37:54.476Z,26.77
2024-01-15T01:40:21.692Z,25.52
2024-01-15T01:42:49.682Z,27.48
2024-01-15T01:45:17.313Z,27.40
2024-01-15T01:47:44.656Z,28.08
2024-01-15T01:50:14.083Z,29.02
2024-01-15T01:52:42.004Z,26.08
2024-01-15T01:55:10.648Z,27.15
2024-01-15T01:57:38.014Z,26.12
2024-01-15T02:00:06.317Z,26.67
2024-01-15T02:02:38.736Z,25.35
2024-01-15T02:05:07.418Z,26.67
2024-01-15T02:07:36.927Z,29.83
2024-01-15T02:10:04.801Z,29.23
2024-01-15T02:12:32.203Z,27.87
2024-01-15T02:14:59.340Z,29.33
2024-01-15T02:17:26.524Z,27.55
2024-01-15T02:19:54.697Z,26.35
2024-01-15T02:22:21.884Z,28.42
2024-01-15T02:24:49.131Z,27.37
2024-01-15T02:27:21.958Z,24.90
2024-01-15T02:29:49.451Z,26.23
2024-01-15T02:32:17.583Z,25.95
2024-01-15T02:34:44.799Z,28.20
2024-01-15T02:37:12.697Z,25.00
2024-01-15T02:39:40.153Z,26.42
2024-01-15T02:42:07.389Z,25.67
2024-01-15T02:44:36.567Z,25.30
2024-01-15T02:47:04.123Z,26.20
2024-01-15T02:49:32.383Z,22.95
2024-01-15T02:51:59.586Z,26.95
2024-01-15T02:54:27.342Z,28.70
2024-01-15T02:56:54.497Z,24.55
2024-01-15T02:59:21.666Z,25.50
2024-01-15T03:01:49.133Z,29.02
2024-01-15T03:04:16.308Z,25.65
2024-01-15T03:06:43.558Z,30.80
2024-01-15T03:09:11.145Z,29.20
2024-01-15T03:11:39.882Z,26.52
2024-01-15T03:14:07.208Z,28.12
2024-01-15T03:16:34.591Z,25.85
2024-01-15T03:19:02.626Z,29.90
2024-01-15T03:21:29.788Z,30.58
2024-01-15T03:23:57.237Z,24.85
2024-01-15T03:26:24.427Z,28.25
2024-01-15T03:28:53.844Z,28.17
2024-01-15T03:33:49.908Z,24.92
2024-01-15T03:36:17.044Z,25.70
2024-01-15T03:38:44.513Z,26.90
2024-01-15T03:41:11.658Z,25.60
2024-01-15T03:43:38.803Z,27.02
2024-01-15T03:46:06.268Z,25.62
2024-01-15T03:48:36.381Z,25.17
2024-01-15T03:51:03.805Z,24.52
2024-01-15T03:53:31.497Z,26.12
2024-01-15T03:55:58.600Z,27.48
2024-01-15T03:58:25.761Z,23.85
2024-01-15T04:00:53.265Z,25.08
2024-01-15T04:03:20.731Z,25.33
2024-01-15T04:05:48.177Z,24.23
2024-01-15T04:08:15.300Z,24.20
2024-01-15T04:10:42.800Z,27.83
2024-01-15T04:13:12.170Z,26.17
2024-01-15T04:15:42.461Z,26.60
2024-01-15T04:18:10.172Z,25.20
2024-01-15T04:20:37.332Z,26.73
2024-01-15T04:23:04.662Z,25.45
2024-01-15T04:25:32.238Z,25.73
2024-01-15T04:27:59.390Z,23.90
2024-01-15T04:30:26.699Z,25.45
2024-01-15T04:32:54.411Z,24.40
2024-01-15T04:35:21.576Z,23.58
2024-01-15T04:37:48.757Z,27.80
2024-01-15T04:40:17.358Z,25.25
2024-01-15T04:42:46.832Z,25.50
2024-01-15T04:45:14.195Z,23.08
2024-01-15T04:47:41.670Z,24.65
2024-01-15T04:50:16.996Z,25.42
2024-01-15T04:52:44.415Z,27.75
2024-01-15T04:55:11.588Z,26.35
2024-01-15T04:57:39.028Z,29.35
2024-01-15T05:00:07.142Z,30.50
2024-01-15T05:02:34.406Z,26.87
2024-01-15T05:05:01.538Z,25.35
2024-01-15T05:07:29.006Z,28.65
2024-01-15T05:09:56.989Z,27.30
2024-01-15T05:12:26.016Z,30.52
2024-01-15T05:14:53.493Z,32.30
2024-01-15T05:17:20.698Z,29.90
2024-01-15T05:19:50.954Z,31.70
2024-01-15T05:22:20.206Z,39.85
2024-01-15T05:24:47.402Z,31.40
2024-01-15T05:27:14.617Z,31.70
2024-01-15T05:29:44.136Z,32.40
2024-01-15T05:32:11.303Z,29.20
2024-01-15T05:34:38.987Z,33.35
2024-01-15T05:37:06.539Z,31.77
2024-01-15T05:39:35.695Z,34.05
2024-01-15T05:42:02.929Z,38.08
2024-01-15T05:44:30.321Z,39.50
2024-01-15T05:46:57.426Z,37.70
2024-01-15T05:49:25.036Z,37.75
2024-01-15T05:51:53.208Z,37.78
2024-01-15T05:54:21.220Z,32.30
2024-01-15T05:56:48.497Z,31.87
2024-01-15T05:59:16.362Z,32.10
2024-01-15T06:01:43.560Z,35.20
2024-01-15T06:04:11.293Z,30.92
2024-01-15T06:06:41.574Z,31.75
2024-01-15T06:09:10.022Z,30.08
2024-01-15T06:11:37.516Z,30.23
2024-01-15T06:14:04.702Z,30.83
2024-01-15T06:16:32.093Z,37.22
2024-01-15T06:18:59.584Z,32.80
2024-01-15T06:21:26.849Z,32.88
2024-01-15T06:23:54.141Z,33.15
2024-01-15T06:26:21.550Z,31.37
2024-01-15T06:28:49.040Z,32.45
2024-01-15T06:31:16.309Z,30.35
2024-01-15T06:33:46.130Z,32.47
2024-01-15T06:36:14.012Z,32.97
2024-01-15T06:38:41.310Z,31.70
2024-01-15T06:41:08.983Z,30.98
2024-01-15T06:43:36.144Z,56.03
2024-01-15T06:46:06.440Z,34.85
2024-01-15T06:48:35.341Z,33.20
2024-01-15T06:51:02.627Z,31.58
2024-01-15T06:53:37.130Z,33.67
2024-01-15T06:56:04.836Z,35.25
2024-01-15T06:58:35.130Z,39.15
2024-01-15T07:01:03.179Z,39.17
2024-01-15T07:03:30.986Z,41.97
2024-01-15T07:05:58.179Z,38.22
2024-01-15T07:08:25.312Z,34.53
2024-01-15T07:10:53.346Z,29.35
2024-01-15T07:13:21.011Z,33.47
2024-01-15T07:15:48.261Z,36.97
2024-01-15T07:18:16.111Z,33.75
2024-01-15T07:20:43.348Z,31.40
2024-01-15T07:23:10.517Z,38.50
2024-01-15T07:25:38.028Z,35.92
2024-01-15T07:28:06.093Z,36.75
2024-01-15T07:30:33.438Z,39.55
2024-01-15T07:33:01.100Z,40.88
2024-01-15T07:35:28.348Z,43.25
2024-01-15T07:37:56.987Z,46.92
2024-01-15T07:40:25.996Z,49.10
2024-01-15T07:42:53.677Z,42.03
2024-01-15T07:45:20.922Z,41.33
2024-01-15T07:47:48.634Z,43.78
2024-01-15T07:50:16.899Z,44.53
2024-01-15T07:52:44.088Z,44.95
2024-01-15T07:55:12.662Z,43.78
2024-01-15T07:57:39.903Z,50.12
2024-01-15T08:00:07.737Z,50.33
2024-01-15T08:02:37.628Z,47.92
2024-01-15T08:05:06.833Z,46.13
2024-01-15T08:07:34.042Z,42.92
2024-01-15T08:10:04.535Z,50.67
2024-01-15T08:12:31.714Z,46.97
2024-01-15T08:14:59.636Z,44.53
2024-01-15T08:17:29.938Z,37.88
2024-01-15T08:19:57.927Z,33.70
2024-01-15T08:22:25.261Z,31.37
2024-01-15T08:24:57.588Z,33.03
2024-01-15T08:27:25.369Z,30.85
2024-01-15T08:32:51.157Z,32.15
2024-01-15T08:35:18.684Z,31.77
2024-01-15T08:37:48.010Z,29.70
2024-01-15T08:40:16.897Z,29.00
2024-01-15T08:42:45.071Z,28.92
2024-01-15T08:45:12.728Z,28.23
2024-01-15T08:47:41.390Z,29.98
2024-01-15T08:50:11.519Z,26.65
2024-01-15T08:52:38.877Z,25.33
2024-01-15T08:55:06.476Z,25.80
2024-01-15T08:57:34.159Z,36.20
2024-01-15T09:00:01.543Z,25.95
2024-01-15T09:02:29.002Z,34.67
2024-01-15T09:04:56.543Z,26.30
2024-01-15T09:07:26.582Z,33.38
2024-01-15T09:09:54.346Z,30.50
2024-01-15T09:12:23.508Z,26.52
2024-01-15T09:21:17.423Z,26.05
2024-01-15T09:23:45.796Z,29.17
2024-01-15T09:28:44.911Z,28.83
2024-01-15T09:31:13.961Z,28.10
2024-01-15T09:33:43.983Z,25.73
2024-01-15T09:36:13.919Z,22.70
2024-01-15T09:38:43.128Z,17.77
2024-01-15T09:41:11.389Z,17.85
2024-01-15T09:43:39.894Z,14.85
2024-01-15T09:46:10.657Z,14.30
2024-01-15T09:48:40.020Z,11.20
2024-01-15T09:51:11.697Z,13.02
2024-01-15T09:53:43.105Z,10.48
2024-01-15T09:56:11.819Z,16.25
2024-01-15T09:58:43.802Z,15.55
2024-01-15T10:01:16.725Z,13.18
2024-01-15T10:03:45.550Z,10.98
2024-01-15T10:09:44.307Z,9.80
2024-01-15T10:12:12.808Z,8.95
2024-01-15T10:21:30.155Z,8.63
2024-01-15T10:24:01.553Z,8.90
2024-01-15T10:26:29.658Z,6.70
2024-01-15T10:28:57.802Z,6.90
2024-01-15T10:31:30.370Z,9.05
2024-01-15T10:34:12.023Z,7.90
2024-01-15T10:36:42.097Z,7.93
2024-01-15T10:39:09.640Z,8.20
2024-01-15T10:41:38.213Z,8.10
2024-01-15T10:44:06.196Z,9.15
2024-01-15T10:46:34.236Z,7.68
2024-01-15T10:49:04.000Z,6.62
2024-01-15T10:51:32.080Z,6.40
2024-01-15T10:54:01.330Z,6.28
2024-01-15T10:56:29.426Z,4.75
2024-01-15T10:59:00.636Z,5.15
2024-01-15T11:01:30.969Z,4.85
2024-01-15T11:04:05.269Z,6.68
2024-01-15T11:06:49.963Z,6.40
2024-01-15T11:09:19.910Z,5.80
2024-01-15T11:11:48.371Z,4.18
2024-01-15T11:14:35.134Z,5.35
2024-01-15T11:17:04.969Z,4.45
2024-01-15T11:19:47.149Z,6.12
2024-01-15T11:22:31.100Z,8.43
2024-01-15T11:25:14.687Z,6.75
2024-01-15T11:27:44.565Z,8.38
2024-01-15T11:30:14.282Z,9.77
2024-01-15T11:32:42.879Z,6.18
2024-01-15T11:35:12.838Z,6.03
2024-01-15T11:37:55.836Z,6.25
2024-01-15T11:40:38.975Z,8.93
2024-01-15T11:43:08.286Z,8.73
2024-01-15T11:45:36.487Z,8.50
2024-01-15T11:48:19.741Z,8.30
2024-01-15T11:50:50.991Z,9.98
2024-01-15T11:53:37.311Z,9.07
2024-01-15T11:56:09.709Z,11.20
2024-01-15T11:58:38.660Z,5.25
2024-01-15T12:01:06.301Z,9.25
2024-01-15T12:03:34.991Z,4.30
2024-01-15T12:06:05.044Z,5.03
2024-01-15T12:11:00.700Z,4.47
2024-01-15T12:16:58.081Z,3.83
2024-01-15T12:19:26.371Z,3.45
2024-01-15T12:21:54.599Z,3.35
2024-01-15T12:24:23.030Z,3.12
2024-01-15T12:26:52.404Z,3.50
2024-01-15T12:29:20.186Z,2.40
2024-01-15T12:31:49.748Z,4.93
2024-01-15T12:34:19.054Z,2.58
2024-01-15T12:36:49.962Z,2.83
2024-01-15T12:39:22.071Z,4.70
2024-01-15T12:41:49.919Z,3.45
2024-01-15T12:46:49.416Z,3.20
2024-01-15T12:49:19.040Z,3.08
2024-01-15T12:51:58.685Z,3.70
2024-01-15T12:54:27.610Z,2.40
2024-01-15T12:56:56.107Z,1.87
2024-01-15T12:59:23.847Z,2.72
2024-01-15T13:01:51.973Z,3.00
2024-01-15T13:04:26.838Z,3.12
2024-01-15T13:06:54.830Z,3.03
2024-01-15T13:09:23.615Z,2.72
2024-01-15T13:11:51.394Z,5.22
2024-01-15T13:14:19.339Z,3.10
2024-01-15T13:16:48.795Z,3.08
2024-01-15T13:19:17.186Z,3.50
2024-01-15T13:21:45.316Z,4.25
2024-01-15T13:24:13.579Z,3.97
2024-01-15T13:26:41.735Z,2.20
2024-01-15T13:29:12.512Z,5.20
2024-01-15T13:34:08.716Z,2.97
2024-01-15T13:36:36.441Z,3.50
2024-01-15T13:39:04.411Z,4.30
2024-01-15T13:41:34.604Z,2.97
2024-01-15T13:44:02.317Z,2.90
2024-01-15T13:46:30.860Z,4.00
2024-01-15T13:48:58.555Z,3.55
2024-01-15T13:51:26.240Z,4.70
2024-01-15T13:53:54.573Z,3.83
2024-01-15T13:56:22.283Z,5.05
2024-01-15T13:58:55.627Z,5.40
2024-01-15T14:01:23.924Z,3.17
2024-01-15T14:03:52.038Z,3.67
2024-01-15T14:06:19.912Z,3.45
2024-01-15T14:08:48.008Z,3.33
2024-01-15T14:11:16.101Z,4.15
2024-01-15T14:13:43.853Z,7.45
2024-01-15T14:16:13.155Z,4.40
2024-01-15T14:18:41.580Z,3.08
2024-01-15T14:21:09.451Z,4.90
2024-01-15T14:23:37.185Z,5.53
2024-01-15T14:26:06.887Z,4.62
2024-01-15T14:28:34.928Z,3.72
2024-01-15T14:31:02.884Z,3.67
2024-01-15T14:33:31.089Z,5.75
2024-01-15T14:36:01.613Z,5.93
2024-01-15T14:38:29.287Z,4.80
2024-01-15T14:41:03.064Z,4.62
2024-01-15T14:43:31.271Z,4.72
2024-01-15T14:45:59.858Z,4.22
2024-01-15T14:48:31.455Z,5.00
2024-01-15T14:50:59.492Z,5.95
2024-01-15T14:53:27.481Z,5.45
2024-01-15T14:55:55.745Z,5.00
2024-01-15T14:58:26.012Z,4.53
2024-01-15T15:00:54.150Z,5.15
2024-01-15T15:03:22.192Z,4.55
2024-01-15T15:05:51.046Z,5.30
2024-01-15T15:08:18.773Z,5.32
2024-01-15T15:10:46.982Z,5.55
2024-01-15T15:13:18.135Z,5.07
2024-01-15T15:19:16.640Z,4.90
2024-01-15T15:21:44.803Z,4.97
2024-01-15T15:24:13.048Z,4.35
2024-01-15T15:27:01.863Z,6.32
2024-01-15T15:29:29.961Z,8.32
2024-01-15T15:31:58.246Z,9.77
2024-01-15T15:34:25.865Z,7.12
2024-01-15T15:36:53.474Z,7.22
2024-01-15T15:39:22.800Z,6.25
2024-01-15T15:41:51.012Z,6.45
2024-01-15T15:44:18.991Z,7.68
2024-01-15T15:46:46.820Z,10.45
2024-01-15T15:49:16.704Z,6.70
2024-01-15T15:51:46.563Z,7.18
2024-01-15T15:54:15.783Z,7.47
2024-01-15T15:56:48.766Z,6.35
2024-01-15T15:59:19.168Z,5.80
2024-01-15T16:01:49.071Z,6.90
2024-01-15T16:04:19.063Z,8.63
2024-01-15T16:06:49.963Z,6.85
2024-01-15T16:09:17.603Z,5.50
2024-01-15T16:11:45.340Z,11.63
2024-01-15T16:14:13.066Z,7.50
2024-01-15T16:23:12.181Z,8.30
2024-01-15T16:23:25.425Z,10.00
2024-01-15T16:23:40.971Z,9.20
2024-01-15T16:25:06.513Z,7.93
2024-01-15T16:27:34.592Z,7.30
2024-01-15T16:30:20.637Z,7.78
2024-01-15T16:33:00.835Z,12.27
2024-01-15T16:35:29.411Z,24.77
2024-01-15T16:37:57.794Z,26.40
2024-01-15T16:40:25.493Z,20.05
2024-01-15T16:42:55.875Z,18.35
2024-01-15T16:45:25.400Z,18.80
2024-01-15T16:47:53.179Z,14.63
2024-01-15T16:50:20.928Z,11.57
2024-01-15T16:52:50.362Z,12.27
2024-01-15T16:55:18.420Z,12.13
2024-01-15T16:57:46.046Z,11.25
2024-01-15T17:00:14.597Z,10.27
2024-01-15T17:02:42.549Z,12.02
2024-01-15T17:05:11.021Z,9.15
2024-01-15T17:07:41.364Z,8.10
2024-01-15T17:10:10.790Z,5.87
2024-01-15T17:12:39.651Z,8.18
2024-01-15T17:15:08.976Z,10.18
2024-01-15T17:17:40.104Z,9.77
2024-01-15T17:20:10.132Z,8.82
2024-01-15T17:22:38.122Z,9.57
2024-01-15T17:25:07.293Z,8.10
2024-01-15T17:27:35.356Z,7.90
2024-01-15T17:30:03.086Z,7.75
2024-01-15T17:32:30.818Z,8.57
2024-01-15T17:34:59.710Z,5.78
2024-01-15T17:37:30.106Z,5.15
2024-01-15T17:39:58.499Z,4.97
2024-01-15T17:42:26.685Z,4.93
2024-01-15T17:44:54.472Z,5.53
2024-01-15T17:47:22.412Z,5.45
2024-01-15T17:49:50.777Z,6.50
2024-01-15T17:52:18.715Z,6.37
2024-01-15T17:54:46.604Z,7.82
2024-01-15T17:57:16.776Z,5.47
2024-01-15T17:59:45.239Z,5.80
2024-01-15T18:02:13.065Z,7.12
2024-01-15T18:04:41.528Z,7.43
2024-01-15T18:07:09.178Z,6.47
2024-01-15T18:09:38.671Z,4.40
2024-01-15T18:12:07.516Z,5.05
2024-01-15T18:14:37.602Z,6.15
2024-01-15T18:20:39.471Z,4.37
2024-01-15T18:26:38.173Z,4.45
2024-01-15T18:29:06.124Z,4.60
2024-01-15T18:31:35.251Z,5.60
2024-01-15T18:34:04.829Z,5.22
2024-01-15T18:36:33.784Z,6.53
2024-01-15T18:39:07.096Z,4.07
2024-01-15T18:41:38.417Z,3.72
2024-01-15T18:46:34.080Z,4.05
2024-01-15T18:49:09.290Z,5.55
2024-01-15T18:51:37.004Z,4.97
2024-01-15T18:54:06.434Z,5.43
2024-01-15T18:56:41.796Z,5.07
2024-01-15T18:59:10.052Z,4.85
2024-01-15T19:01:40.961Z,3.40
2024-01-15T19:04:13.073Z,4.20
2024-01-15T19:06:42.898Z,5.87
2024-01-15T19:09:12.034Z,4.62
2024-01-15T19:11:41.540Z,3.62
2024-01-15T19:14:09.714Z,3.67
2024-01-15T19:16:37.599Z,5.10
2024-01-15T19:19:05.417Z,8.23
2024-01-15T19:21:34.314Z,4.62
2024-01-15T19:24:03.608Z,4.97
2024-01-15T19:26:31.549Z,4.20
2024-01-15T19:29:03.089Z,4.97
2024-01-15T19:31:31.307Z,4.70
2024-01-15T19:34:01.108Z,4.53
2024-01-15T19:36:29.397Z,5.35
2024-01-15T19:38:57.104Z,4.22
2024-01-15T19:41:25.508Z,4.55
2024-01-15T19:43:54.004Z,6.03
2024-01-15T19:46:22.576Z,4.75
2024-01-15T19:48:50.868Z,3.78
2024-01-15T19:51:23.617Z,3.35
2024-01-15T19:53:54.411Z,4.12
2024-01-15T19:56:22.962Z,5.85
2024-01-15T19:58:52.932Z,4.03
2024-01-15T20:01:22.514Z,3.62
2024-01-15T20:03:51.819Z,3.78
2024-01-15T20:06:20.417Z,3.37
2024-01-15T20:12:02.430Z,4.75
2024-01-15T20:14:31.920Z,4.10
2024-01-15T20:17:01.150Z,3.53
2024-01-15T20:19:29.333Z,3.45
2024-01-15T20:25:35.221Z,5.28
2024-01-15T20:31:34.748Z,4.75
2024-01-15T20:34:02.796Z,4.22
2024-01-15T20:36:34.918Z,4.30
2024-01-15T20:39:04.003Z,4.80
2024-01-15T20:41:36.775Z,4.50
2024-01-15T20:44:06.270Z,4.15
2024-01-15T20:49:52.188Z,3.15
2024-01-15T20:52:22.543Z,3.30
2024-01-15T20:54:52.783Z,3.58
2024-01-15T20:57:29.270Z,3.35
2024-01-15T21:00:00.333Z,4.30
2024-01-15T21:02:28.870Z,3.35
2024-01-15T21:04:56.616Z,6.53
2024-01-15T21:07:24.847Z,7.18
2024-01-15T21:09:53.014Z,5.10
2024-01-15T21:12:22.845Z,4.80
2024-01-15T21:14:50.787Z,3.97
2024-01-15T21:17:19.137Z,3.72
2024-01-15T21:19:47.846Z,2.95
2024-01-15T21:22:17.052Z,4.00
2024-01-15T21:24:45.568Z,3.90
2024-01-15T21:27:13.219Z,4.72
2024-01-15T21:29:40.951Z,3.80
2024-01-15T21:32:08.961Z,3.67
2024-01-15T21:34:36.731Z,5.37
2024-01-15T21:37:06.003Z,4.00
2024-01-15T21:39:35.000Z,4.72
2024-01-15T21:42:02.622Z,3.80
2024-01-15T21:44:30.769Z,4.18
2024-01-15T21:46:59.456Z,4.03
2024-01-15T21:49:27.501Z,3.87
2024-01-15T21:51:57.028Z,3.72
2024-01-15T21:54:25.041Z,3.50
2024-01-15T21:56:53.334Z,3.22
2024-01-15T21:59:21.993Z,3.30
2024-01-15T22:01:56.192Z,3.42
2024-01-15T22:04:24.263Z,4.18
2024-01-15T22:06:53.461Z,3.42
2024-01-15T22:09:26.317Z,3.53
2024-01-15T22:11:54.313Z,4.15
2024-01-15T22:14:23.374Z,3.45
2024-01-15T22:16:53.360Z,3.03
2024-01-15T22:19:21.329Z,3.10
2024-01-15T22:21:49.706Z,3.53
2024-01-15T22:24:18.350Z,2.83
2024-01-15T22:26:46.623Z,3.70
2024-01-15T22:29:14.335Z,4.22
2024-01-15T22:31:42.395Z,3.85
2024-01-15T22:34:12.858Z,3.65
2024-01-15T22:36:40.692Z,3.55
2024-01-15T22:39:08.411Z,3.25
2024-01-15T22:41:36.384Z,3.85
2024-01-15T22:44:04.036Z,3.65
2024-01-15T22:46:33.338Z,3.17
2024-01-15T22:49:01.354Z,3.33
2024-01-15T22:51:29.047Z,3.65
2024-01-15T22:53:56.482Z,4.00
2024-01-15T22:56:24.456Z,3.72
2024-01-15T22:58:52.120Z,3.92
2024-01-15T23:01:21.721Z,2.70
2024-01-15T23:03:49.884Z,3.03
2024-01-15T23:06:20.068Z,3.33
2024-01-15T23:08:49.321Z,2.67
2024-01-15T23:11:16.812Z,2.83
2024-01-15T23:13:44.312Z,3.28
2024-01-15T23:16:15.198Z,2.92
2024-01-15T23:18:43.050Z,3.20
2024-01-15T23:21:10.771Z,3.50
2024-01-15T23:23:38.440Z,2.95
2024-01-15T23:26:11.660Z,2.62
2024-01-15T23:28:41.341Z,2.78
2024-01-15T23:31:09.258Z,2.70
2024-01-15T23:33:36.612Z,2.72
2024-01-15T23:36:04.933Z,2.67
2024-01-15T23:38:32.432Z,2.50
2024-01-15T23:40:59.894Z,3.45
2024-01-15T23:43:27.516Z,1.80
2024-01-15T23:45:59.752Z,2.50
2024-01-15T23:48:34.105Z,2.90
2024-01-15T23:51:04.278Z,2.50
2024-01-15T23:53:31.933Z,2.30
2024-01-15T23:56:01.899Z,2.20
2024-01-15T23:58:29.824Z,3.08
